sensor_id;sensor_type;location;lat;lon;timestamp;P1;durP1;ratioP1;P2;durP2;ratioP2
5052;SDS011;2545;50.892;5.740;2022-11-15T00:00:47;17.50;;;9.70;;
5052;SDS011;2545;50.892;5.740;2022-11-15T00:03:16;19.80;;;11.30;;
5052;SDS011;2545;50.892;5.740;2022-11-15T00:05:43;17.60;;;10.50;;
5052;SDS011;2545;50.892;5.740;2022-11-15T00:08:09;19.10;;;10.83;;
5052;SDS011;2545;50.892;5.740;2022-11-15T00:10:35;17.77;;;10.00;;
5052;SDS011;2545;50.892;5.740;2022-11-15T00:13:07;18.10;;;10.83;;
5052;SDS011;2545;50.892;5.740;2022-11-15T00:15:37;16.20;;;11.20;;
5052;SDS011;2545;50.892;5.740;2022-11-15T00:18:04;18.70;;;10.23;;
5052;SDS011;2545;50.892;5.740;2022-11-15T00:20:31;24.23;;;12.33;;
5052;SDS011;2545;50.892;5.740;2022-11-15T00:22:58;21.20;;;10.17;;
5052;SDS011;2545;50.892;5.740;2022-11-15T00:25:24;18.33;;;11.07;;
5052;SDS011;2545;50.892;5.740;2022-11-15T00:27:49;18.20;;;10.87;;
5052;SDS011;2545;50.892;5.740;2022-11-15T00:30:16;16.93;;;10.20;;
5052;SDS011;2545;50.892;5.740;2022-11-15T00:32:42;21.70;;;11.57;;
5052;SDS011;2545;50.892;5.740;2022-11-15T00:35:07;18.90;;;11.70;;
5052;SDS011;2545;50.892;5.740;2022-11-15T00:37:33;17.47;;;10.60;;
5052;SDS011;2545;50.892;5.740;2022-11-15T00:39:58;23.17;;;11.07;;
5052;SDS011;2545;50.892;5.740;2022-11-15T00:42:23;25.47;;;11.00;;
5052;SDS011;2545;50.892;5.740;2022-11-15T00:44:48;15.93;;;11.37;;
5052;SDS011;2545;50.892;5.740;2022-11-15T00:47:14;17.73;;;11.10;;
5052;SDS011;2545;50.892;5.740;2022-11-15T00:49:39;28.93;;;11.37;;
5052;SDS011;2545;50.892;5.740;2022-11-15T00:52:06;22.40;;;10.50;;
5052;SDS011;2545;50.892;5.740;2022-11-15T00:54:31;20.87;;;9.53;;
5052;SDS011;2545;50.892;5.740;2022-11-15T00:56:56;22.83;;;10.17;;
5052;SDS011;2545;50.892;5.740;2022-11-15T00:59:21;14.40;;;8.77;;
5052;SDS011;2545;50.892;5.740;2022-11-15T01:01:47;13.50;;;8.97;;
5052;SDS011;2545;50.892;5.740;2022-11-15T01:04:12;18.97;;;9.07;;
5052;SDS011;2545;50.892;5.740;2022-11-15T01:06:37;15.27;;;9.90;;
5052;SDS011;2545;50.892;5.740;2022-11-15T01:09:02;12.67;;;8.53;;
5052;SDS011;2545;50.892;5.740;2022-11-15T01:11:28;18.27;;;7.67;;
5052;SDS011;2545;50.892;5.740;2022-11-15T01:13:54;12.50;;;8.67;;
5052;SDS011;2545;50.892;5.740;2022-11-15T01:16:19;11.47;;;8.43;;
5052;SDS011;2545;50.892;5.740;2022-11-15T01:18:45;13.97;;;8.17;;
5052;SDS011;2545;50.892;5.740;2022-11-15T01:21:15;10.87;;;7.30;;
5052;SDS011;2545;50.892;5.740;2022-11-15T01:23:42;13.03;;;7.73;;
5052;SDS011;2545;50.892;5.740;2022-11-15T01:26:11;13.63;;;8.70;;
5052;SDS011;2545;50.892;5.740;2022-11-15T01:28:37;25.70;;;7.47;;
5052;SDS011;2545;50.892;5.740;2022-11-15T01:31:07;16.40;;;7.70;;
5052;SDS011;2545;50.892;5.740;2022-11-15T01:33:37;16.63;;;8.10;;
5052;SDS011;2545;50.892;5.740;2022-11-15T01:36:03;17.60;;;7.53;;
5052;SDS011;2545;50.892;5.740;2022-11-15T01:38:39;15.43;;;8.10;;
5052;SDS011;2545;50.892;5.740;2022-11-15T01:41:04;12.47;;;8.00;;
5052;SDS011;2545;50.892;5.740;2022-11-15T01:43:34;13.00;;;7.40;;
5052;SDS011;2545;50.892;5.740;2022-11-15T01:46:05;14.23;;;8.13;;
5052;SDS011;2545;50.892;5.740;2022-11-15T01:48:43;15.97;;;8.07;;
5052;SDS011;2545;50.892;5.740;2022-11-15T01:51:10;15.77;;;8.00;;
5052;SDS011;2545;50.892;5.740;2022-11-15T01:53:38;14.23;;;8.17;;
5052;SDS011;2545;50.892;5.740;2022-11-15T01:56:09;23.83;;;8.53;;
5052;SDS011;2545;50.892;5.740;2022-11-15T01:58:38;14.63;;;8.53;;
5052;SDS011;2545;50.892;5.740;2022-11-15T02:01:05;15.97;;;8.13;;
5052;SDS011;2545;50.892;5.740;2022-11-15T02:03:33;20.37;;;8.20;;
5052;SDS011;2545;50.892;5.740;2022-11-15T02:06:09;14.20;;;8.60;;
5052;SDS011;2545;50.892;5.740;2022-11-15T02:08:35;21.67;;;8.13;;
5052;SDS011;2545;50.892;5.740;2022-11-15T02:11:00;17.93;;;8.30;;
5052;SDS011;2545;50.892;5.740;2022-11-15T02:13:25;17.43;;;8.87;;
5052;SDS011;2545;50.892;5.740;2022-11-15T02:18:30;14.63;;;7.67;;
5052;SDS011;2545;50.892;5.740;2022-11-15T02:29:06;8.73;;;7.20;;
5052;SDS011;2545;50.892;5.740;2022-11-15T02:34:22;15.73;;;7.70;;
5052;SDS011;2545;50.892;5.740;2022-11-15T02:40:04;20.57;;;7.60;;
5052;SDS011;2545;50.892;5.740;2022-11-15T02:43:00;11.50;;;7.00;;
5052;SDS011;2545;50.892;5.740;2022-11-15T02:45:52;15.20;;;7.57;;
5052;SDS011;2545;50.892;5.740;2022-11-15T02:48:24;11.53;;;7.47;;
5052;SDS011;2545;50.892;5.740;2022-11-15T02:50:51;16.23;;;7.30;;
5052;SDS011;2545;50.892;5.740;2022-11-15T02:53:17;19.23;;;7.97;;
5052;SDS011;2545;50.892;5.740;2022-11-15T02:55:46;16.90;;;9.30;;
5052;SDS011;2545;50.892;5.740;2022-11-15T02:58:19;22.93;;;8.77;;
5052;SDS011;2545;50.892;5.740;2022-11-15T03:00:52;15.80;;;9.37;;
5052;SDS011;2545;50.892;5.740;2022-11-15T03:08:53;13.87;;;9.10;;
5052;SDS011;2545;50.892;5.740;2022-11-15T03:11:20;16.47;;;10.47;;
5052;SDS011;2545;50.892;5.740;2022-11-15T03:19:13;17.30;;;11.23;;
5052;SDS011;2545;50.892;5.740;2022-11-15T03:21:51;14.83;;;9.50;;
5052;SDS011;2545;50.892;5.740;2022-11-15T03:24:20;16.77;;;9.23;;
5052;SDS011;2545;50.892;5.740;2022-11-15T03:26:48;22.53;;;9.70;;
5052;SDS011;2545;50.892;5.740;2022-11-15T03:29:17;14.37;;;9.30;;
5052;SDS011;2545;50.892;5.740;2022-11-15T03:31:48;20.23;;;8.63;;
5052;SDS011;2545;50.892;5.740;2022-11-15T03:34:29;12.57;;;8.37;;
5052;SDS011;2545;50.892;5.740;2022-11-15T03:36:59;12.00;;;8.00;;
5052;SDS011;2545;50.892;5.740;2022-11-15T03:39:24;12.97;;;8.90;;
5052;SDS011;2545;50.892;5.740;2022-11-15T03:47:49;9.40;;;7.03;;
5052;SDS011;2545;50.892;5.740;2022-11-15T03:50:35;7.97;;;6.33;;
5052;SDS011;2545;50.892;5.740;2022-11-15T03:53:00;10.77;;;6.10;;
5052;SDS011;2545;50.892;5.740;2022-11-15T03:55:26;11.13;;;7.40;;
5052;SDS011;2545;50.892;5.740;2022-11-15T03:57:53;9.80;;;7.87;;
5052;SDS011;2545;50.892;5.740;2022-11-15T04:00:21;11.27;;;6.70;;
5052;SDS011;2545;50.892;5.740;2022-11-15T04:02:46;12.27;;;6.67;;
5052;SDS011;2545;50.892;5.740;2022-11-15T04:05:11;9.93;;;6.97;;
5052;SDS011;2545;50.892;5.740;2022-11-15T04:07:37;14.80;;;6.33;;
5052;SDS011;2545;50.892;5.740;2022-11-15T04:10:02;10.23;;;5.47;;
5052;SDS011;2545;50.892;5.740;2022-11-15T04:12:32;8.63;;;5.53;;
5052;SDS011;2545;50.892;5.740;2022-11-15T04:17:35;10.23;;;6.07;;
5052;SDS011;2545;50.892;5.740;2022-11-15T04:20:02;8.83;;;5.70;;
5052;SDS011;2545;50.892;5.740;2022-11-15T04:22:48;7.03;;;5.47;;
5052;SDS011;2545;50.892;5.740;2022-11-15T04:25:31;9.30;;;6.17;;
5052;SDS011;2545;50.892;5.740;2022-11-15T04:27:57;8.40;;;6.97;;
5052;SDS011;2545;50.892;5.740;2022-11-15T04:30:22;7.10;;;5.63;;
5052;SDS011;2545;50.892;5.740;2022-11-15T04:32:47;8.17;;;5.63;;
5052;SDS011;2545;50.892;5.740;2022-11-15T04:35:12;10.30;;;5.83;;
5052;SDS011;2545;50.892;5.740;2022-11-15T04:37:38;8.50;;;5.67;;
5052;SDS011;2545;50.892;5.740;2022-11-15T04:40:03;10.90;;;5.90;;
5052;SDS011;2545;50.892;5.740;2022-11-15T04:42:29;9.30;;;5.53;;
5052;SDS011;2545;50.892;5.740;2022-11-15T04:44:54;8.23;;;6.17;;
5052;SDS011;2545;50.892;5.740;2022-11-15T04:47:20;8.53;;;5.70;;
5052;SDS011;2545;50.892;5.740;2022-11-15T04:49:46;9.90;;;6.20;;
5052;SDS011;2545;50.892;5.740;2022-11-15T04:52:11;10.57;;;5.77;;
5052;SDS011;2545;50.892;5.740;2022-11-15T04:54:36;11.43;;;5.73;;
5052;SDS011;2545;50.892;5.740;2022-11-15T04:57:01;6.80;;;4.70;;
5052;SDS011;2545;50.892;5.740;2022-11-15T04:59:27;6.27;;;4.70;;
5052;SDS011;2545;50.892;5.740;2022-11-15T05:01:52;6.70;;;5.20;;
5052;SDS011;2545;50.892;5.740;2022-11-15T05:04:17;6.00;;;4.80;;
5052;SDS011;2545;50.892;5.740;2022-11-15T05:06:46;11.93;;;4.80;;
5052;SDS011;2545;50.892;5.740;2022-11-15T05:09:12;10.43;;;4.30;;
5052;SDS011;2545;50.892;5.740;2022-11-15T05:11:38;12.07;;;4.83;;
5052;SDS011;2545;50.892;5.740;2022-11-15T05:14:04;6.23;;;4.93;;
5052;SDS011;2545;50.892;5.740;2022-11-15T05:16:29;9.57;;;5.07;;
5052;SDS011;2545;50.892;5.740;2022-11-15T05:18:54;7.00;;;4.47;;
5052;SDS011;2545;50.892;5.740;2022-11-15T05:21:20;6.70;;;4.53;;
5052;SDS011;2545;50.892;5.740;2022-11-15T05:23:46;11.37;;;5.47;;
5052;SDS011;2545;50.892;5.740;2022-11-15T05:26:11;9.87;;;5.03;;
5052;SDS011;2545;50.892;5.740;2022-11-15T05:28:37;12.20;;;5.60;;
5052;SDS011;2545;50.892;5.740;2022-11-15T05:31:04;7.13;;;5.53;;
5052;SDS011;2545;50.892;5.740;2022-11-15T05:33:31;8.33;;;5.20;;
5052;SDS011;2545;50.892;5.740;2022-11-15T05:36:00;8.63;;;5.10;;
5052;SDS011;2545;50.892;5.740;2022-11-15T05:38:30;7.00;;;4.47;;
5052;SDS011;2545;50.892;5.740;2022-11-15T05:40:55;3.83;;;3.13;;
5052;SDS011;2545;50.892;5.740;2022-11-15T05:43:21;3.33;;;3.03;;
5052;SDS011;2545;50.892;5.740;2022-11-15T05:45:46;4.30;;;3.40;;
5052;SDS011;2545;50.892;5.740;2022-11-15T05:48:12;6.40;;;2.87;;
5052;SDS011;2545;50.892;5.740;2022-11-15T05:50:38;4.57;;;3.13;;
5052;SDS011;2545;50.892;5.740;2022-11-15T05:53:07;3.37;;;2.80;;
5052;SDS011;2545;50.892;5.740;2022-11-15T05:55:32;10.47;;;3.20;;
5052;SDS011;2545;50.892;5.740;2022-11-15T05:57:59;6.83;;;3.10;;
5052;SDS011;2545;50.892;5.740;2022-11-15T06:00:25;6.47;;;3.27;;
5052;SDS011;2545;50.892;5.740;2022-11-15T06:02:51;7.93;;;3.57;;
5052;SDS011;2545;50.892;5.740;2022-11-15T06:05:16;3.80;;;2.90;;
5052;SDS011;2545;50.892;5.740;2022-11-15T06:07:41;8.13;;;3.90;;
5052;SDS011;2545;50.892;5.740;2022-11-15T06:10:07;5.10;;;3.50;;
5052;SDS011;2545;50.892;5.740;2022-11-15T06:12:33;7.00;;;3.57;;
5052;SDS011;2545;50.892;5.740;2022-11-15T06:14:58;4.23;;;3.53;;
5052;SDS011;2545;50.892;5.740;2022-11-15T06:17:23;3.40;;;2.33;;
5052;SDS011;2545;50.892;5.740;2022-11-15T06:19:49;7.33;;;3.07;;
5052;SDS011;2545;50.892;5.740;2022-11-15T06:22:14;3.73;;;2.63;;
5052;SDS011;2545;50.892;5.740;2022-11-15T06:24:39;3.83;;;2.60;;
5052;SDS011;2545;50.892;5.740;2022-11-15T06:27:05;3.10;;;2.23;;
5052;SDS011;2545;50.892;5.740;2022-11-15T06:29:30;5.47;;;2.83;;
5052;SDS011;2545;50.892;5.740;2022-11-15T06:31:55;2.83;;;2.53;;
5052;SDS011;2545;50.892;5.740;2022-11-15T06:34:20;11.00;;;1.90;;
5052;SDS011;2545;50.892;5.740;2022-11-15T06:36:46;3.47;;;2.23;;
5052;SDS011;2545;50.892;5.740;2022-11-15T06:39:11;6.43;;;2.80;;
5052;SDS011;2545;50.892;5.740;2022-11-15T06:41:36;3.43;;;2.30;;
5052;SDS011;2545;50.892;5.740;2022-11-15T06:44:02;4.07;;;2.23;;
5052;SDS011;2545;50.892;5.740;2022-11-15T06:46:28;3.77;;;1.70;;
5052;SDS011;2545;50.892;5.740;2022-11-15T06:48:53;2.57;;;2.00;;
5052;SDS011;2545;50.892;5.740;2022-11-15T06:51:19;8.83;;;2.47;;
5052;SDS011;2545;50.892;5.740;2022-11-15T06:53:45;7.27;;;2.23;;
5052;SDS011;2545;50.892;5.740;2022-11-15T06:56:10;3.27;;;2.60;;
5052;SDS011;2545;50.892;5.740;2022-11-15T06:58:36;3.87;;;2.70;;
5052;SDS011;2545;50.892;5.740;2022-11-15T07:01:06;4.17;;;3.13;;
5052;SDS011;2545;50.892;5.740;2022-11-15T07:03:37;6.23;;;2.70;;
5052;SDS011;2545;50.892;5.740;2022-11-15T07:06:03;5.50;;;2.63;;
5052;SDS011;2545;50.892;5.740;2022-11-15T07:08:29;3.53;;;2.63;;
5052;SDS011;2545;50.892;5.740;2022-11-15T07:10:55;4.97;;;2.40;;
5052;SDS011;2545;50.892;5.740;2022-11-15T07:13:25;4.57;;;2.90;;
5052;SDS011;2545;50.892;5.740;2022-11-15T07:15:51;6.40;;;3.03;;
5052;SDS011;2545;50.892;5.740;2022-11-15T07:18:16;4.53;;;2.80;;
5052;SDS011;2545;50.892;5.740;2022-11-15T07:20:41;5.90;;;4.50;;
5052;SDS011;2545;50.892;5.740;2022-11-15T07:23:07;6.53;;;4.67;;
5052;SDS011;2545;50.892;5.740;2022-11-15T07:25:32;10.63;;;6.17;;
5052;SDS011;2545;50.892;5.740;2022-11-15T07:27:57;6.43;;;3.80;;
5052;SDS011;2545;50.892;5.740;2022-11-15T07:30:24;3.90;;;3.17;;
5052;SDS011;2545;50.892;5.740;2022-11-15T07:32:57;6.83;;;3.10;;
5052;SDS011;2545;50.892;5.740;2022-11-15T07:35:24;5.63;;;2.80;;
5052;SDS011;2545;50.892;5.740;2022-11-15T07:37:54;9.07;;;3.30;;
5052;SDS011;2545;50.892;5.740;2022-11-15T07:40:20;10.33;;;3.13;;
5052;SDS011;2545;50.892;5.740;2022-11-15T07:42:45;5.70;;;3.10;;
5052;SDS011;2545;50.892;5.740;2022-11-15T07:45:20;9.33;;;3.90;;
5052;SDS011;2545;50.892;5.740;2022-11-15T07:47:47;11.00;;;3.80;;
5052;SDS011;2545;50.892;5.740;2022-11-15T07:50:13;9.23;;;4.30;;
5052;SDS011;2545;50.892;5.740;2022-11-15T07:52:39;7.00;;;3.53;;
5052;SDS011;2545;50.892;5.740;2022-11-15T07:55:04;8.13;;;2.97;;
5052;SDS011;2545;50.892;5.740;2022-11-15T07:57:30;9.97;;;3.00;;
5052;SDS011;2545;50.892;5.740;2022-11-15T07:59:55;3.77;;;2.50;;
5052;SDS011;2545;50.892;5.740;2022-11-15T08:02:21;4.40;;;1.83;;
5052;SDS011;2545;50.892;5.740;2022-11-15T08:04:46;2.17;;;1.93;;
5052;SDS011;2545;50.892;5.740;2022-11-15T08:07:11;3.93;;;2.40;;
5052;SDS011;2545;50.892;5.740;2022-11-15T08:09:37;8.13;;;2.20;;
5052;SDS011;2545;50.892;5.740;2022-11-15T08:12:02;5.17;;;2.20;;
5052;SDS011;2545;50.892;5.740;2022-11-15T08:14:28;7.93;;;2.80;;
5052;SDS011;2545;50.892;5.740;2022-11-15T08:16:54;6.30;;;2.77;;
5052;SDS011;2545;50.892;5.740;2022-11-15T08:19:20;17.67;;;3.93;;
5052;SDS011;2545;50.892;5.740;2022-11-15T08:21:45;2.77;;;2.03;;
5052;SDS011;2545;50.892;5.740;2022-11-15T08:24:11;9.63;;;2.40;;
5052;SDS011;2545;50.892;5.740;2022-11-15T08:26:36;3.53;;;2.10;;
5052;SDS011;2545;50.892;5.740;2022-11-15T08:29:01;5.50;;;2.00;;
5052;SDS011;2545;50.892;5.740;2022-11-15T08:31:27;9.10;;;2.20;;
5052;SDS011;2545;50.892;5.740;2022-11-15T08:33:52;4.90;;;2.77;;
5052;SDS011;2545;50.892;5.740;2022-11-15T08:36:17;10.43;;;1.90;;
5052;SDS011;2545;50.892;5.740;2022-11-15T08:38:43;7.13;;;2.13;;
5052;SDS011;2545;50.892;5.740;2022-11-15T08:41:10;3.03;;;2.13;;
5052;SDS011;2545;50.892;5.740;2022-11-15T08:43:38;3.53;;;2.37;;
5052;SDS011;2545;50.892;5.740;2022-11-15T08:46:03;4.43;;;1.90;;
5052;SDS011;2545;50.892;5.740;2022-11-15T08:48:29;2.70;;;1.73;;
5052;SDS011;2545;50.892;5.740;2022-11-15T08:50:55;1.83;;;1.40;;
5052;SDS011;2545;50.892;5.740;2022-11-15T08:53:21;4.53;;;1.73;;
5052;SDS011;2545;50.892;5.740;2022-11-15T08:55:46;9.10;;;2.47;;
5052;SDS011;2545;50.892;5.740;2022-11-15T08:58:11;8.57;;;2.30;;
5052;SDS011;2545;50.892;5.740;2022-11-15T09:00:37;5.47;;;2.47;;
5052;SDS011;2545;50.892;5.740;2022-11-15T09:03:06;2.50;;;1.67;;
5052;SDS011;2545;50.892;5.740;2022-11-15T09:05:32;5.40;;;2.57;;
5052;SDS011;2545;50.892;5.740;2022-11-15T09:08:00;2.97;;;2.00;;
5052;SDS011;2545;50.892;5.740;2022-11-15T09:10:25;4.43;;;1.80;;
5052;SDS011;2545;50.892;5.740;2022-11-15T09:12:50;3.27;;;1.90;;
5052;SDS011;2545;50.892;5.740;2022-11-15T09:15:16;5.93;;;1.80;;
5052;SDS011;2545;50.892;5.740;2022-11-15T09:17:41;3.20;;;1.50;;
5052;SDS011;2545;50.892;5.740;2022-11-15T09:20:07;4.67;;;1.83;;
5052;SDS011;2545;50.892;5.740;2022-11-15T09:22:33;6.50;;;1.93;;
5052;SDS011;2545;50.892;5.740;2022-11-15T09:24:59;3.63;;;1.67;;
5052;SDS011;2545;50.892;5.740;2022-11-15T09:27:28;1.83;;;1.30;;
5052;SDS011;2545;50.892;5.740;2022-11-15T09:29:54;4.80;;;1.93;;
5052;SDS011;2545;50.892;5.740;2022-11-15T09:32:19;2.63;;;1.30;;
5052;SDS011;2545;50.892;5.740;2022-11-15T09:34:44;5.70;;;1.40;;
5052;SDS011;2545;50.892;5.740;2022-11-15T09:37:10;6.67;;;2.00;;
5052;SDS011;2545;50.892;5.740;2022-11-15T09:39:35;2.80;;;1.30;;
5052;SDS011;2545;50.892;5.740;2022-11-15T09:42:04;4.20;;;1.73;;
5052;SDS011;2545;50.892;5.740;2022-11-15T09:45:04;5.57;;;2.37;;
5052;SDS011;2545;50.892;5.740;2022-11-15T09:50:15;2.47;;;1.13;;
5052;SDS011;2545;50.892;5.740;2022-11-15T09:52:51;4.03;;;1.53;;
5052;SDS011;2545;50.892;5.740;2022-11-15T09:55:16;3.90;;;1.43;;
5052;SDS011;2545;50.892;5.740;2022-11-15T09:57:51;2.53;;;1.40;;
5052;SDS011;2545;50.892;5.740;2022-11-15T10:00:35;2.60;;;1.60;;
5052;SDS011;2545;50.892;5.740;2022-11-15T10:05:46;2.10;;;1.50;;
5052;SDS011;2545;50.892;5.740;2022-11-15T10:10:46;11.63;;;2.70;;
5052;SDS011;2545;50.892;5.740;2022-11-15T10:13:20;3.50;;;1.50;;
5052;SDS011;2545;50.892;5.740;2022-11-15T10:15:48;2.37;;;1.40;;
5052;SDS011;2545;50.892;5.740;2022-11-15T10:18:34;4.50;;;1.70;;
5052;SDS011;2545;50.892;5.740;2022-11-15T10:21:17;1.60;;;1.50;;
5052;SDS011;2545;50.892;5.740;2022-11-15T10:23:57;2.27;;;1.37;;
5052;SDS011;2545;50.892;5.740;2022-11-15T10:26:23;6.23;;;2.43;;
5052;SDS011;2545;50.892;5.740;2022-11-15T10:28:49;3.17;;;1.57;;
5052;SDS011;2545;50.892;5.740;2022-11-15T10:31:47;2.00;;;1.10;;
5052;SDS011;2545;50.892;5.740;2022-11-15T10:34:13;8.13;;;1.43;;
5052;SDS011;2545;50.892;5.740;2022-11-15T10:36:44;6.20;;;1.73;;
5052;SDS011;2545;50.892;5.740;2022-11-15T10:39:19;3.63;;;1.50;;
5052;SDS011;2545;50.892;5.740;2022-11-15T10:41:44;6.70;;;1.80;;
5052;SDS011;2545;50.892;5.740;2022-11-15T10:46:41;4.87;;;1.60;;
5052;SDS011;2545;50.892;5.740;2022-11-15T10:49:21;5.37;;;1.67;;
5052;SDS011;2545;50.892;5.740;2022-11-15T10:54:11;3.23;;;1.67;;
5052;SDS011;2545;50.892;5.740;2022-11-15T10:56:39;3.40;;;1.87;;
5052;SDS011;2545;50.892;5.740;2022-11-15T10:59:13;2.77;;;1.43;;
5052;SDS011;2545;50.892;5.740;2022-11-15T11:01:47;4.40;;;1.60;;
5052;SDS011;2545;50.892;5.740;2022-11-15T11:04:13;4.83;;;1.60;;
5052;SDS011;2545;50.892;5.740;2022-11-15T11:06:58;1.57;;;1.30;;
5052;SDS011;2545;50.892;5.740;2022-11-15T11:09:34;4.67;;;1.67;;
5052;SDS011;2545;50.892;5.740;2022-11-15T11:12:03;4.77;;;1.40;;
5052;SDS011;2545;50.892;5.740;2022-11-15T11:14:31;2.70;;;1.90;;
5052;SDS011;2545;50.892;5.740;2022-11-15T11:22:56;5.00;;;1.30;;
5052;SDS011;2545;50.892;5.740;2022-11-15T11:25:47;3.73;;;1.50;;
5052;SDS011;2545;50.892;5.740;2022-11-15T11:34:00;3.27;;;1.60;;
5052;SDS011;2545;50.892;5.740;2022-11-15T11:39:56;2.00;;;1.20;;
5052;SDS011;2545;50.892;5.740;2022-11-15T11:47:30;2.70;;;1.13;;
5052;SDS011;2545;50.892;5.740;2022-11-15T11:50:00;5.77;;;2.20;;
5052;SDS011;2545;50.892;5.740;2022-11-15T11:52:28;5.73;;;2.47;;
5052;SDS011;2545;50.892;5.740;2022-11-15T11:55:17;3.13;;;1.83;;
5052;SDS011;2545;50.892;5.740;2022-11-15T11:58:06;2.37;;;1.30;;
5052;SDS011;2545;50.892;5.740;2022-11-15T12:00:38;4.67;;;2.17;;
5052;SDS011;2545;50.892;5.740;2022-11-15T12:05:48;8.23;;;1.40;;
5052;SDS011;2545;50.892;5.740;2022-11-15T12:08:27;2.73;;;1.27;;
5052;SDS011;2545;50.892;5.740;2022-11-15T12:13:43;3.83;;;1.80;;
5052;SDS011;2545;50.892;5.740;2022-11-15T12:16:16;5.40;;;1.53;;
5052;SDS011;2545;50.892;5.740;2022-11-15T12:18:48;2.70;;;1.60;;
5052;SDS011;2545;50.892;5.740;2022-11-15T12:21:19;5.83;;;1.80;;
5052;SDS011;2545;50.892;5.740;2022-11-15T12:23:50;2.43;;;1.30;;
5052;SDS011;2545;50.892;5.740;2022-11-15T12:26:25;3.93;;;1.70;;
5052;SDS011;2545;50.892;5.740;2022-11-15T12:28:59;5.30;;;1.60;;
5052;SDS011;2545;50.892;5.740;2022-11-15T12:34:00;5.40;;;1.40;;
5052;SDS011;2545;50.892;5.740;2022-11-15T12:36:35;2.90;;;1.13;;
5052;SDS011;2545;50.892;5.740;2022-11-15T12:39:12;6.53;;;1.80;;
5052;SDS011;2545;50.892;5.740;2022-11-15T12:41:40;4.00;;;1.73;;
5052;SDS011;2545;50.892;5.740;2022-11-15T12:44:10;6.33;;;2.07;;
5052;SDS011;2545;50.892;5.740;2022-11-15T12:49:10;4.23;;;1.33;;
5052;SDS011;2545;50.892;5.740;2022-11-15T12:57:50;4.97;;;1.97;;
5052;SDS011;2545;50.892;5.740;2022-11-15T12:59:57;12.83;;;3.30;;
5052;SDS011;2545;50.892;5.740;2022-11-15T13:17:39;2.53;;;1.40;;
5052;SDS011;2545;50.892;5.740;2022-11-15T13:28:36;5.53;;;1.67;;
5052;SDS011;2545;50.892;5.740;2022-11-15T13:33:53;3.93;;;1.80;;
5052;SDS011;2545;50.892;5.740;2022-11-15T13:36:22;7.33;;;2.00;;
5052;SDS011;2545;50.892;5.740;2022-11-15T13:38:57;3.37;;;2.10;;
5052;SDS011;2545;50.892;5.740;2022-11-15T13:41:29;1.93;;;1.80;;
5052;SDS011;2545;50.892;5.740;2022-11-15T13:43:56;5.57;;;1.60;;
5052;SDS011;2545;50.892;5.740;2022-11-15T13:46:27;4.83;;;2.03;;
5052;SDS011;2545;50.892;5.740;2022-11-15T13:51:25;10.83;;;1.70;;
5052;SDS011;2545;50.892;5.740;2022-11-15T13:54:18;11.00;;;1.90;;
5052;SDS011;2545;50.892;5.740;2022-11-15T13:56:47;6.50;;;1.87;;
5052;SDS011;2545;50.892;5.740;2022-11-15T13:59:25;3.73;;;1.70;;
5052;SDS011;2545;50.892;5.740;2022-11-15T14:01:52;2.30;;;1.83;;
5052;SDS011;2545;50.892;5.740;2022-11-15T14:04:20;2.77;;;1.80;;
5052;SDS011;2545;50.892;5.740;2022-11-15T14:06:49;2.60;;;1.90;;
5052;SDS011;2545;50.892;5.740;2022-11-15T14:12:00;2.97;;;2.20;;
5052;SDS011;2545;50.892;5.740;2022-11-15T14:14:28;2.47;;;1.87;;
5052;SDS011;2545;50.892;5.740;2022-11-15T14:25:18;4.00;;;2.10;;
5052;SDS011;2545;50.892;5.740;2022-11-15T14:27:44;3.27;;;1.93;;
5052;SDS011;2545;50.892;5.740;2022-11-15T14:30:30;3.63;;;1.97;;
5052;SDS011;2545;50.892;5.740;2022-11-15T14:32:55;4.70;;;2.00;;
5052;SDS011;2545;50.892;5.740;2022-11-15T14:35:21;2.40;;;2.20;;
5052;SDS011;2545;50.892;5.740;2022-11-15T14:37:48;2.33;;;1.60;;
5052;SDS011;2545;50.892;5.740;2022-11-15T14:40:18;3.10;;;2.10;;
5052;SDS011;2545;50.892;5.740;2022-11-15T14:42:46;5.33;;;1.90;;
5052;SDS011;2545;50.892;5.740;2022-11-15T14:45:13;4.00;;;1.97;;
5052;SDS011;2545;50.892;5.740;2022-11-15T14:47:43;5.17;;;2.13;;
5052;SDS011;2545;50.892;5.740;2022-11-15T14:50:16;1.90;;;1.77;;
5052;SDS011;2545;50.892;5.740;2022-11-15T14:52:43;9.80;;;2.43;;
5052;SDS011;2545;50.892;5.740;2022-11-15T14:55:13;2.80;;;2.13;;
5052;SDS011;2545;50.892;5.740;2022-11-15T14:57:43;7.60;;;2.10;;
5052;SDS011;2545;50.892;5.740;2022-11-15T15:00:08;3.37;;;1.70;;
5052;SDS011;2545;50.892;5.740;2022-11-15T15:02:35;4.90;;;2.00;;
5052;SDS011;2545;50.892;5.740;2022-11-15T15:05:00;6.60;;;2.20;;
5052;SDS011;2545;50.892;5.740;2022-11-15T15:07:28;4.73;;;2.20;;
5052;SDS011;2545;50.892;5.740;2022-11-15T15:09:53;5.60;;;2.33;;
5052;SDS011;2545;50.892;5.740;2022-11-15T15:12:20;5.20;;;2.80;;
5052;SDS011;2545;50.892;5.740;2022-11-15T15:14:47;2.50;;;2.13;;
5052;SDS011;2545;50.892;5.740;2022-11-15T15:17:14;5.00;;;2.53;;
5052;SDS011;2545;50.892;5.740;2022-11-15T15:19:40;4.27;;;2.10;;
5052;SDS011;2545;50.892;5.740;2022-11-15T15:22:05;4.80;;;2.10;;
5052;SDS011;2545;50.892;5.740;2022-11-15T15:24:31;4.33;;;2.30;;
5052;SDS011;2545;50.892;5.740;2022-11-15T15:26:57;5.70;;;2.63;;
5052;SDS011;2545;50.892;5.740;2022-11-15T15:29:22;3.63;;;2.73;;
5052;SDS011;2545;50.892;5.740;2022-11-15T15:31:47;5.43;;;2.40;;
5052;SDS011;2545;50.892;5.740;2022-11-15T15:34:12;5.97;;;2.70;;
5052;SDS011;2545;50.892;5.740;2022-11-15T15:36:38;2.37;;;2.03;;
5052;SDS011;2545;50.892;5.740;2022-11-15T15:39:03;9.20;;;3.20;;
5052;SDS011;2545;50.892;5.740;2022-11-15T15:41:28;4.80;;;2.63;;
5052;SDS011;2545;50.892;5.740;2022-11-15T15:43:54;4.47;;;2.97;;
5052;SDS011;2545;50.892;5.740;2022-11-15T15:46:19;5.00;;;2.10;;
5052;SDS011;2545;50.892;5.740;2022-11-15T15:48:45;3.73;;;2.20;;
5052;SDS011;2545;50.892;5.740;2022-11-15T15:51:11;4.63;;;2.60;;
5052;SDS011;2545;50.892;5.740;2022-11-15T15:53:37;4.90;;;2.90;;
5052;SDS011;2545;50.892;5.740;2022-11-15T15:56:02;7.03;;;2.57;;
5052;SDS011;2545;50.892;5.740;2022-11-15T15:58:28;3.97;;;2.90;;
5052;SDS011;2545;50.892;5.740;2022-11-15T16:00:53;3.70;;;3.00;;
5052;SDS011;2545;50.892;5.740;2022-11-15T16:03:19;5.90;;;3.70;;
5052;SDS011;2545;50.892;5.740;2022-11-15T16:05:44;7.33;;;3.80;;
5052;SDS011;2545;50.892;5.740;2022-11-15T16:08:16;3.77;;;3.20;;
5052;SDS011;2545;50.892;5.740;2022-11-15T16:10:44;11.10;;;3.40;;
5052;SDS011;2545;50.892;5.740;2022-11-15T16:13:09;5.03;;;3.93;;
5052;SDS011;2545;50.892;5.740;2022-11-15T16:15:34;7.73;;;3.30;;
5052;SDS011;2545;50.892;5.740;2022-11-15T16:18:00;4.87;;;3.63;;
5052;SDS011;2545;50.892;5.740;2022-11-15T16:23:10;9.83;;;4.60;;
5052;SDS011;2545;50.892;5.740;2022-11-15T16:25:41;6.70;;;4.70;;
5052;SDS011;2545;50.892;5.740;2022-11-15T16:28:14;5.33;;;3.83;;
5052;SDS011;2545;50.892;5.740;2022-11-15T16:30:49;3.73;;;3.13;;
5052;SDS011;2545;50.892;5.740;2022-11-15T16:33:23;3.70;;;3.10;;
5052;SDS011;2545;50.892;5.740;2022-11-15T16:35:48;5.93;;;3.63;;
5052;SDS011;2545;50.892;5.740;2022-11-15T16:38:14;5.60;;;3.93;;
5052;SDS011;2545;50.892;5.740;2022-11-15T16:40:40;5.40;;;3.60;;
5052;SDS011;2545;50.892;5.740;2022-11-15T16:43:05;3.13;;;2.60;;
5052;SDS011;2545;50.892;5.740;2022-11-15T16:45:32;3.80;;;3.50;;
5052;SDS011;2545;50.892;5.740;2022-11-15T16:47:59;5.60;;;3.70;;
5052;SDS011;2545;50.892;5.740;2022-11-15T16:50:25;6.93;;;3.37;;
5052;SDS011;2545;50.892;5.740;2022-11-15T16:52:52;9.33;;;4.10;;
5052;SDS011;2545;50.892;5.740;2022-11-15T16:55:21;5.83;;;4.60;;
5052;SDS011;2545;50.892;5.740;2022-11-15T16:57:48;6.23;;;4.57;;
5052;SDS011;2545;50.892;5.740;2022-11-15T17:00:14;4.13;;;3.60;;
5052;SDS011;2545;50.892;5.740;2022-11-15T17:02:44;5.10;;;4.03;;
5052;SDS011;2545;50.892;5.740;2022-11-15T17:05:11;4.67;;;4.17;;
5052;SDS011;2545;50.892;5.740;2022-11-15T17:07:37;6.97;;;3.87;;
5052;SDS011;2545;50.892;5.740;2022-11-15T17:10:03;4.77;;;4.37;;
5052;SDS011;2545;50.892;5.740;2022-11-15T17:12:28;4.10;;;3.70;;
5052;SDS011;2545;50.892;5.740;2022-11-15T17:14:55;5.83;;;4.43;;
5052;SDS011;2545;50.892;5.740;2022-11-15T17:17:20;8.30;;;4.20;;
5052;SDS011;2545;50.892;5.740;2022-11-15T17:19:45;4.23;;;3.77;;
5052;SDS011;2545;50.892;5.740;2022-11-15T17:22:11;5.30;;;4.30;;
5052;SDS011;2545;50.892;5.740;2022-11-15T17:24:36;6.13;;;4.23;;